Time;durP1;ratioP1;P1;durP2;ratioP2;P2;SDS_P1;SDS_P2;PMS_P1;PMS_P2;Temp;Humidity;BMP_temperature;BMP_pressure;BME280_temperature;BME280_humidity;BME280_pressure;Samples;Min_cycle;Max_cycle;Signal;HPM_P1;HPM_P2
2022/12/05 00:01:19;;;;;;;113.90;56.63;;;;;;;1.71;100.00;99953.66;5074098;28;20429;-77
2022/12/05 00:03:45;;;;;;;118.53;59.38;;;;;;;1.71;100.00;99951.09;5092811;28;20031;-77
2022/12/05 00:06:11;;;;;;;121.60;60.75;;;;;;;1.69;100.00;99945.13;5092238;28;20031;-77
2022/12/05 00:08:36;;;;;;;121.13;63.28;;;;;;;1.67;100.00;99934.00;5092575;28;20463;-77
2022/12/05 00:11:01;;;;;;;122.50;61.63;;;;;;;1.66;100.00;99940.84;5092544;28;20031;-77
2022/12/05 00:13:27;;;;;;;143.18;64.10;;;;;;;1.73;100.00;99949.38;5092216;28;20024;-77
2022/12/05 00:15:52;;;;;;;113.57;56.58;;;;;;;1.73;100.00;99957.09;5092573;28;20336;-77
2022/12/05 00:18:17;;;;;;;116.03;57.60;;;;;;;1.65;100.00;99928.03;5092385;28;20016;-77
2022/12/05 00:20:47;;;;;;;131.05;60.58;;;;;;;1.66;100.00;99945.97;5092365;28;20028;-77
2022/12/05 00:23:13;;;;;;;120.45;58.05;;;;;;;1.60;100.00;99930.63;5092216;28;20024;-77
2022/12/05 00:25:39;;;;;;;131.10;55.92;;;;;;;1.59;100.00;99933.19;5074393;28;20031;-77
2022/12/05 00:28:04;;;;;;;120.50;58.22;;;;;;;1.62;100.00;99936.59;5092313;28;20103;-77
2022/12/05 00:30:29;;;;;;;120.25;57.85;;;;;;;1.59;100.00;99928.91;5092198;28;20799;-77
2022/12/05 00:32:55;;;;;;;113.43;54.80;;;;;;;1.57;100.00;99927.22;5092367;28;20048;-77
2022/12/05 00:35:20;;;;;;;116.75;57.13;;;;;;;1.52;100.00;99931.50;5091452;28;20031;-77
2022/12/05 00:37:45;;;;;;;110.72;54.42;;;;;;;1.62;100.00;99940.88;5092227;28;20020;-77
2022/12/05 00:40:11;;;;;;;109.13;57.10;;;;;;;1.55;100.00;99929.78;5092017;28;20367;-77
2022/12/05 00:42:36;;;;;;;110.60;56.60;;;;;;;1.60;100.00;99937.44;5092371;28;20030;-77
2022/12/05 00:45:02;;;;;;;115.63;59.63;;;;;;;1.65;100.00;99954.56;5092215;28;20443;-77
2022/12/05 00:47:27;;;;;;;103.85;54.15;;;;;;;1.59;100.00;99944.31;5091796;28;20079;-77
2022/12/05 00:49:53;;;;;;;123.47;58.25;;;;;;;1.59;100.00;99943.44;5092091;28;20585;-77
2022/12/05 00:52:18;;;;;;;109.03;53.65;;;;;;;1.64;100.00;99944.28;5091814;28;20027;-77
2022/12/05 00:54:43;;;;;;;110.22;57.95;;;;;;;1.55;100.00;99927.22;5092355;28;20024;-77
2022/12/05 00:57:09;;;;;;;96.03;48.35;;;;;;;1.61;100.00;99941.75;5091887;28;20048;-77
2022/12/05 00:59:34;;;;;;;96.97;49.20;;;;;;;1.63;100.00;99935.72;5073403;28;20031;-77
2022/12/05 01:01:59;;;;;;;114.18;58.53;;;;;;;1.64;100.00;99939.97;5091885;28;20040;-77
2022/12/05 01:04:25;;;;;;;115.47;56.25;;;;;;;1.61;100.00;99939.19;5091850;28;20424;-77
2022/12/05 01:06:54;;;;;;;106.57;56.30;;;;;;;1.65;100.00;99941.72;5092006;28;20024;-77
2022/12/05 01:09:20;;;;;;;106.50;54.83;;;;;;;1.69;100.00;99953.66;5091515;28;20016;-77
2022/12/05 01:11:46;;;;;;;104.97;57.65;;;;;;;1.65;100.00;99951.13;5091823;28;20059;-77
2022/12/05 01:14:14;;;;;;;100.75;52.65;;;;;;;1.69;100.00;99948.53;5091820;28;20031;-77
2022/12/05 01:16:42;;;;;;;91.05;49.65;;;;;;;1.66;100.00;99935.72;5091957;28;20032;-77
2022/12/05 01:19:20;;;;;;;95.80;53.42;;;;;;;1.72;100.00;99950.22;5091949;28;20071;-77
2022/12/05 01:21:46;;;;;;;105.07;54.95;;;;;;;1.69;100.00;99939.97;5091587;28;20078;-77
2022/12/05 01:24:12;;;;;;;99.43;53.08;;;;;;;1.75;100.00;99947.63;5091672;28;20095;-77
2022/12/05 01:26:39;;;;;;;103.38;55.85;;;;;;;1.69;100.00;99935.69;5091664;28;20040;-77
2022/12/05 01:29:05;;;;;;;94.60;50.80;;;;;;;1.74;100.00;99927.97;5091836;28;20099;-77
2022/12/05 01:31:33;;;;;;;98.32;50.45;;;;;;;1.77;100.00;99945.06;5091353;28;20115;-77
2022/12/05 01:34:00;;;;;;;103.63;54.78;;;;;;;1.70;100.00;99939.97;5091630;28;20366;-77
2022/12/05 01:36:27;;;;;;;96.72;53.03;;;;;;;1.74;100.00;99953.66;5091333;28;20359;-77
2022/12/05 01:38:53;;;;;;;95.50;53.70;;;;;;;1.74;100.00;99949.34;5091823;28;20426;-77
2022/12/05 01:41:32;;;;;;;92.60;50.53;;;;;;;1.76;100.00;99959.59;5091355;28;20114;-77
2022/12/05 01:44:00;;;;;;;105.45;52.75;;;;;;;1.76;100.00;99957.03;5091850;28;20022;-77
2022/12/05 01:46:27;;;;;;;96.00;51.95;;;;;;;1.63;100.00;99934.88;5091502;28;20030;-77
2022/12/05 01:48:59;;;;;;;95.22;52.30;;;;;;;1.65;100.00;99933.16;5095162;28;20031;-78
2022/12/05 01:51:24;;;;;;;110.05;57.60;;;;;;;1.75;100.00;99951.06;5094832;28;20028;-77
2022/12/05 01:53:50;;;;;;;90.13;51.60;;;;;;;1.69;100.00;99937.41;5095439;28;20085;-77
2022/12/05 01:56:16;;;;;;;78.13;44.72;;;;;;;1.71;100.00;99928.81;5095104;28;20024;-77
2022/12/05 01:58:43;;;;;;;83.90;48.08;;;;;;;1.71;100.00;99925.41;5095220;28;20019;-77
2022/12/05 02:01:12;;;;;;;110.93;63.97;;;;;;;1.65;100.00;99913.47;5095110;28;20044;-77
2022/12/05 02:03:40;;;;;;;88.93;49.42;;;;;;;1.72;100.00;99938.22;5094753;28;20020;-78
2022/12/05 02:06:05;;;;;;;87.60;49.10;;;;;;;1.72;100.00;99925.38;5094871;28;20031;-78
2022/12/05 02:08:31;;;;;;;114.18;62.78;;;;;;;1.70;100.00;99916.00;5095150;28;20015;-77
2022/12/05 02:10:57;;;;;;;91.55;49.83;;;;;;;1.58;100.00;99916.94;5094862;28;20141;-77
2022/12/05 02:13:32;;;;;;;99.40;51.88;;;;;;;1.65;100.00;99938.28;5094971;28;20031;-77
2022/12/05 02:16:29;;;;;;;96.45;49.67;;;;;;;1.62;100.00;99936.59;5094751;28;20031;-77
2022/12/05 02:19:27;;;;;;;94.28;50.33;;;;;;;1.58;100.00;99927.19;4992719;28;20034;-77
2022/12/05 02:22:20;;;;;;;96.85;53.05;;;;;;;1.62;100.00;99930.59;4992750;28;20102;-77
2022/12/05 02:25:13;;;;;;;94.32;50.97;;;;;;;1.58;100.00;99931.47;4992648;28;20040;-77
2022/12/05 02:28:07;;;;;;;92.68;49.40;;;;;;;1.58;100.00;99928.91;4992455;28;20138;-77
2022/12/05 02:30:39;;;;;;;98.45;51.63;;;;;;;1.51;100.00;99930.66;4992229;28;20066;-77
2022/12/05 02:33:15;;;;;;;93.82;50.28;;;;;;;1.57;100.00;99943.47;4992444;28;20053;-77
2022/12/05 02:35:52;;;;;;;90.47;48.08;;;;;;;1.56;100.00;99940.88;4991953;28;20038;-77
2022/12/05 02:38:28;;;;;;;96.65;51.25;;;;;;;1.48;100.00;99925.56;4992278;28;20041;-77
2022/12/05 02:41:18;;;;;;;93.68;51.50;;;;;;;1.48;100.00;99926.41;4992481;28;20055;-77
2022/12/05 02:43:58;;;;;;;91.55;48.53;;;;;;;1.53;100.00;99940.94;4992300;28;20030;-77
2022/12/05 02:46:27;;;;;;;96.45;50.92;;;;;;;1.44;100.00;99916.16;4992043;28;20022;-77
2022/12/05 02:49:07;;;;;;;84.05;44.47;;;;;;;1.47;100.00;99932.38;4992213;28;20142;-77
2022/12/05 02:51:47;;;;;;;87.30;44.88;;;;;;;1.42;100.00;99913.59;4991908;28;20038;-77
2022/12/05 02:54:20;;;;;;;91.90;49.72;;;;;;;1.40;100.00;99907.63;4992292;28;20066;-77
2022/12/05 02:56:48;;;;;;;86.45;46.50;;;;;;;1.43;100.00;99907.63;5090504;28;20394;-77
2022/12/05 02:59:13;;;;;;;87.40;47.45;;;;;;;1.45;100.00;99907.59;5093610;28;20050;-77
2022/12/05 03:01:38;;;;;;;89.82;46.45;;;;;;;1.49;100.00;99907.56;5093772;28;20076;-77
2022/12/05 03:04:06;;;;;;;98.53;48.40;;;;;;;1.48;100.00;99907.59;5093846;28;20490;-77
2022/12/05 03:06:43;;;;;;;88.32;48.78;;;;;;;1.46;100.00;99917.84;5093474;28;20023;-77
2022/12/05 03:09:17;;;;;;;85.03;43.10;;;;;;;1.41;100.00;99906.75;5093634;28;20028;-77
2022/12/05 03:11:48;;;;;;;96.45;49.90;;;;;;;1.52;100.00;99923.81;5093481;28;20019;-77
2022/12/05 03:14:21;;;;;;;87.85;47.33;;;;;;;1.48;100.00;99912.72;5093730;28;20123;-77
2022/12/05 03:16:52;;;;;;;84.53;44.53;;;;;;;1.46;100.00;99906.72;5093493;28;20058;-77
2022/12/05 03:19:46;;;;;;;97.97;49.95;;;;;;;1.52;100.00;99932.38;5080185;28;20028;-77
2022/12/05 03:22:25;;;;;;;92.32;46.08;;;;;;;1.51;100.00;99925.50;5073352;28;20059;-77
2022/12/05 03:24:50;;;;;;;97.78;51.60;;;;;;;1.47;100.00;99916.13;5073223;28;20027;-77
2022/12/05 03:27:47;;;;;;;93.28;49.80;;;;;;;1.53;100.00;99922.97;5073338;28;20107;-77
2022/12/05 03:30:16;;;;;;;85.47;44.15;;;;;;;1.50;100.00;99919.53;4971969;28;20401;-77
2022/12/05 03:33:02;;;;;;;93.93;52.97;;;;;;;1.49;100.00;99911.84;4971740;28;20064;-77
2022/12/05 03:35:43;;;;;;;77.20;42.85;;;;;;;1.49;100.00;99911.84;4971594;28;20043;-77
2022/12/05 03:38:13;;;;;;;92.40;49.60;;;;;;;1.44;100.00;99909.31;4971987;28;20066;-77
2022/12/05 03:41:13;;;;;;;95.13;48.65;;;;;;;1.49;100.00;99909.28;4971406;28;20539;-77
2022/12/05 03:44:01;;;;;;;76.38;43.08;;;;;;;1.45;100.00;99903.31;4933014;29;20062;-77
2022/12/05 03:46:33;;;;;;;94.22;52.15;;;;;;;1.38;100.00;99886.22;4933127;29;20036;-77
2022/12/05 03:49:17;;;;;;;88.53;46.83;;;;;;;1.45;100.00;99894.75;4933305;29;20509;-77
2022/12/05 03:52:00;;;;;;;105.38;56.03;;;;;;;1.37;100.00;99889.66;4933007;29;20114;-78
2022/12/05 03:54:31;;;;;;;217.80;129.80;;;;;;;1.41;100.00;99893.94;4932800;29;20035;-77
2022/12/05 03:57:08;;;;;;;196.68;120.22;;;;;;;1.39;100.00;99892.22;4933170;29;20043;-77
2022/12/05 03:59:58;;;;;;;130.60;69.60;;;;;;;1.45;100.00;99899.91;4932877;29;20032;-77
2022/12/05 04:02:31;;;;;;;91.60;52.80;;;;;;;1.44;100.00;99901.63;4932692;29;20075;-77
2022/12/05 04:05:05;;;;;;;204.02;138.20;;;;;;;1.36;100.00;99887.13;4933035;29;20028;-77
2022/12/05 04:07:34;;;;;;;135.13;67.68;;;;;;;1.39;100.00;99887.06;4972066;28;20475;-77
2022/12/05 04:10:07;;;;;;;108.25;65.43;;;;;;;1.42;100.00;99894.78;4990067;28;20022;-77
2022/12/05 04:12:34;;;;;;;90.78;53.03;;;;;;;1.39;100.00;99894.78;4990209;28;20022;-77
2022/12/05 04:15:04;;;;;;;111.55;78.05;;;;;;;1.40;100.00;99901.63;4990660;28;20057;-78
2022/12/05 04:17:46;;;;;;;194.43;128.35;;;;;;;1.45;100.00;99899.91;4990682;28;20042;-78
2022/12/05 04:23:23;;;;;;;86.05;48.13;;;;;;;1.38;100.00;99885.38;5072300;28;20032;-77
2022/12/05 04:25:48;;;;;;;85.15;46.55;;;;;;;1.47;100.00;99903.28;5071898;28;20032;-77
2022/12/05 04:28:41;;;;;;;83.35;46.72;;;;;;;1.44;100.00;99899.06;5072053;28;20103;-77
2022/12/05 04:31:15;;;;;;;90.00;47.58;;;;;;;1.42;100.00;99887.91;5072045;28;20020;-77
2022/12/05 04:33:57;;;;;;;89.40;47.28;;;;;;;1.41;100.00;99899.06;5071824;28;20424;-77
2022/12/05 04:36:33;;;;;;;82.97;47.22;;;;;;;1.41;100.00;99903.34;5072118;28;20134;-77
2022/12/05 04:39:08;;;;;;;90.68;48.42;;;;;;;1.42;100.00;99894.78;5072017;28;20028;-77
2022/12/05 04:41:43;;;;;;;74.85;41.05;;;;;;;1.40;100.00;99896.50;5071792;28;20162;-77
2022/12/05 04:44:12;;;;;;;90.75;49.38;;;;;;;1.30;100.00;99876.88;5071914;28;20039;-78
2022/12/05 04:46:41;;;;;;;81.45;46.72;;;;;;;1.42;100.00;99892.22;5071678;28;20025;-77
2022/12/05 04:49:11;;;;;;;85.35;45.22;;;;;;;1.34;100.00;99886.25;5072066;28;20025;-77
2022/12/05 04:51:38;;;;;;;82.65;47.08;;;;;;;1.31;100.00;99879.44;5071730;28;20020;-77
2022/12/05 04:54:16;;;;;;;88.35;49.72;;;;;;;1.38;100.00;99882.81;5071850;28;20024;-77
2022/12/05 04:56:45;;;;;;;84.03;46.63;;;;;;;1.42;100.00;99897.34;5071517;28;20035;-77
2022/12/05 04:59:11;;;;;;;69.22;40.00;;;;;;;1.35;100.00;99891.41;5071667;28;20021;-77
2022/12/05 05:01:42;;;;;;;81.97;46.53;;;;;;;1.38;100.00;99904.19;5079916;28;20051;-77
2022/12/05 05:04:16;;;;;;;73.88;43.08;;;;;;;1.36;100.00;99898.22;5091947;28;20016;-77
2022/12/05 05:06:42;;;;;;;83.53;45.50;;;;;;;1.39;100.00;99912.75;5092031;28;20402;-78
2022/12/05 05:09:09;;;;;;;83.68;45.88;;;;;;;1.46;100.00;99914.44;5091926;28;20026;-77
2022/12/05 05:11:35;;;;;;;71.75;43.67;;;;;;;1.38;100.00;99906.75;5091499;28;20119;-78
2022/12/05 05:14:01;;;;;;;148.50;105.50;;;;;;;1.38;100.00;99896.50;5092048;28;20027;-77
2022/12/05 05:16:38;;;;;;;74.60;45.88;;;;;;;1.38;100.00;99901.63;5091900;28;20058;-78
2022/12/05 05:19:05;;;;;;;72.10;40.88;;;;;;;1.47;100.00;99916.97;5091873;28;20023;-77
2022/12/05 05:21:35;;;;;;;88.90;57.38;;;;;;;1.42;100.00;99899.91;5093182;28;20032;-78
2022/12/05 05:24:02;;;;;;;90.38;54.95;;;;;;;1.45;100.00;99887.06;5095909;28;20041;-78
2022/12/05 05:26:29;;;;;;;68.05;42.55;;;;;;;1.50;100.00;99890.44;5095943;28;20076;-78
2022/12/05 05:28:56;;;;;;;67.25;40.13;;;;;;;1.53;100.00;99895.56;5095851;28;20031;-78
2022/12/05 05:31:22;;;;;;;76.05;45.78;;;;;;;1.56;100.00;99897.25;5095511;28;20023;-78
2022/12/05 05:33:52;;;;;;;84.10;51.95;;;;;;;1.56;100.00;99913.53;5095924;28;20020;-78
2022/12/05 05:36:19;;;;;;;74.97;42.95;;;;;;;1.52;100.00;99905.84;5095357;28;20028;-78
2022/12/05 05:38:47;;;;;;;75.70;47.72;;;;;;;1.47;100.00;99898.16;5095524;28;20023;-78
2022/12/05 05:41:15;;;;;;;76.15;47.72;;;;;;;1.58;100.00;99922.06;5095587;28;20106;-78
2022/12/05 05:43:41;;;;;;;76.63;42.30;;;;;;;1.53;100.00;99905.84;5095145;28;20020;-78
2022/12/05 05:46:07;;;;;;;80.50;42.92;;;;;;;1.57;100.00;99925.50;5095414;28;20031;-78
2022/12/05 05:48:33;;;;;;;74.78;42.65;;;;;;;1.58;100.00;99927.19;5095067;28;20051;-78
2022/12/05 05:50:59;;;;;;;70.82;41.08;;;;;;;1.51;100.00;99920.38;5076892;28;20097;-78
2022/12/05 05:53:25;;;;;;;63.30;37.78;;;;;;;1.49;100.00;99920.41;5095440;28;20016;-78
2022/12/05 05:55:50;;;;;;;65.43;38.78;;;;;;;1.59;100.00;99917.78;5094997;28;20031;-78
2022/12/05 05:58:15;;;;;;;83.63;51.88;;;;;;;1.56;100.00;99913.53;5095521;28;20020;-78
2022/12/05 06:00:41;;;;;;;69.97;42.22;;;;;;;1.58;100.00;99918.66;5094987;28;20039;-78
2022/12/05 06:03:06;;;;;;;62.88;37.85;;;;;;;1.63;100.00;99924.59;5095045;28;20066;-78
2022/12/05 06:05:32;;;;;;;70.90;41.10;;;;;;;1.66;100.00;99924.59;5094629;28;20400;-78
2022/12/05 06:07:57;;;;;;;73.75;42.88;;;;;;;1.65;100.00;99917.75;5095193;28;20016;-78
2022/12/05 06:10:23;;;;;;;63.97;39.50;;;;;;;1.60;100.00;99920.34;5094978;28;20368;-78
2022/12/05 06:12:48;;;;;;;64.13;39.42;;;;;;;1.67;100.00;99919.44;5094730;28;20020;-78
2022/12/05 06:15:13;;;;;;;108.93;76.20;;;;;;;1.63;100.00;99910.03;5094850;28;20020;-78
2022/12/05 06:17:39;;;;;;;85.13;55.15;;;;;;;1.60;100.00;99901.50;5094541;28;20473;-78
2022/12/05 06:20:05;;;;;;;63.97;41.03;;;;;;;1.66;100.00;99904.91;5094596;28;20028;-78
2022/12/05 06:22:31;;;;;;;73.22;42.55;;;;;;;1.61;100.00;99903.22;5094715;28;20020;-78
2022/12/05 06:24:57;;;;;;;66.75;39.03;;;;;;;1.57;100.00;99906.69;5094765;28;20107;-78
2022/12/05 06:27:22;;;;;;;67.25;39.03;;;;;;;1.59;100.00;99913.50;5094477;28;20016;-78
2022/12/05 06:29:48;;;;;;;74.53;44.45;;;;;;;1.51;100.00;99907.53;5094472;28;20039;-78
2022/12/05 06:32:13;;;;;;;68.45;39.30;;;;;;;1.49;100.00;99922.13;5094181;28;20111;-78
2022/12/05 06:34:39;;;;;;;67.90;38.78;;;;;;;1.43;100.00;99910.19;5094095;28;20513;-78
2022/12/05 06:37:04;;;;;;;70.72;40.90;;;;;;;1.43;100.00;99920.44;5094687;28;20023;-87
2022/12/05 06:39:29;;;;;;;172.40;112.03;;;;;;;1.45;100.00;99923.84;5076385;28;20378;-85
2022/12/05 06:41:55;;;;;;;102.70;63.17;;;;;;;1.45;100.00;99917.88;5075965;28;20370;-85
2022/12/05 06:44:20;;;;;;;85.55;54.90;;;;;;;1.36;100.00;99902.53;5094301;28;20088;-84
2022/12/05 06:46:47;;;;;;;71.97;41.08;;;;;;;1.47;100.00;99919.53;5075860;28;20429;-86
2022/12/05 06:49:12;;;;;;;66.25;41.13;;;;;;;1.40;100.00;99909.34;5094077;28;20036;-85
2022/12/05 06:51:38;;;;;;;76.22;44.25;;;;;;;1.40;100.00;99914.47;5094020;28;20363;-85
2022/12/05 06:54:03;;;;;;;86.97;54.95;;;;;;;1.44;100.00;99916.16;5094197;28;20024;-85
2022/12/05 06:56:29;;;;;;;84.82;48.83;;;;;;;1.44;100.00;99914.44;5075911;28;20024;-85
2022/12/05 06:58:55;;;;;;;96.32;62.13;;;;;;;1.44;100.00;99906.75;5075494;28;20027;-85
2022/12/05 07:01:37;;;;;;;90.72;58.20;;;;;;;1.44;100.00;99898.19;5070834;28;20037;-87
2022/12/05 07:04:04;;;;;;;80.53;55.08;;;;;;;1.46;100.00;99907.56;5054306;28;20020;-82
2022/12/05 07:06:30;;;;;;;98.22;66.93;;;;;;;1.45;100.00;99903.31;5071417;28;20111;-82
2022/12/05 07:08:55;;;;;;;92.97;59.72;;;;;;;1.44;100.00;99887.94;5070763;28;20107;-82
2022/12/05 07:11:21;;;;;;;98.03;65.43;;;;;;;1.47;100.00;99888.75;5070941;28;20115;-82
2022/12/05 07:13:46;;;;;;;77.13;49.22;;;;;;;1.44;100.00;99883.66;5070851;28;20024;-82
2022/12/05 07:16:11;;;;;;;80.32;51.53;;;;;;;1.55;100.00;99898.97;5070892;28;20036;-82
2022/12/05 07:18:37;;;;;;;96.22;58.47;;;;;;;1.54;100.00;99894.69;5070638;28;20464;-82
2022/12/05 07:21:05;;;;;;;87.97;56.40;;;;;;;1.51;100.00;99889.56;5070774;28;20043;-82
2022/12/05 07:23:30;;;;;;;81.95;51.65;;;;;;;1.54;100.00;99894.69;5070763;28;20016;-82
2022/12/05 07:25:56;;;;;;;82.97;51.55;;;;;;;1.55;100.00;99896.41;5053698;28;20043;-82
2022/12/05 07:28:22;;;;;;;72.95;42.25;;;;;;;1.49;100.00;99887.03;5053939;28;20056;-82
2022/12/05 07:30:48;;;;;;;78.82;46.97;;;;;;;1.57;100.00;99910.09;5070427;28;20054;-82
2022/12/05 07:33:13;;;;;;;91.30;54.35;;;;;;;1.57;100.00;99901.53;5090205;28;20032;-82
2022/12/05 07:35:38;;;;;;;78.50;46.72;;;;;;;1.49;100.00;99899.88;5093050;28;20020;-82
2022/12/05 07:38:04;;;;;;;74.93;46.28;;;;;;;1.49;100.00;99899.88;5075101;28;20180;-82
2022/12/05 07:40:29;;;;;;;76.80;47.45;;;;;;;1.59;100.00;99908.34;5093465;28;20035;-82
2022/12/05 07:42:54;;;;;;;72.28;41.47;;;;;;;1.49;100.00;99892.16;5092896;28;20043;-82
2022/12/05 07:45:20;;;;;;;74.68;46.97;;;;;;;1.61;100.00;99909.22;5074880;28;20020;-82
2022/12/05 07:47:46;;;;;;;99.60;64.75;;;;;;;1.60;100.00;99909.19;5092859;28;20035;-82
2022/12/05 07:50:12;;;;;;;114.22;65.78;;;;;;;1.61;100.00;99918.63;5093126;28;20064;-82
2022/12/05 07:52:37;;;;;;;76.50;45.10;;;;;;;1.62;100.00;99910.06;5092864;28;20356;-82
2022/12/05 07:55:03;;;;;;;129.05;80.10;;;;;;;1.59;100.00;99913.50;5092969;28;20028;-82
2022/12/05 07:57:29;;;;;;;77.53;44.00;;;;;;;1.54;100.00;99915.25;5074531;28;20047;-82
2022/12/05 07:59:55;;;;;;;138.80;91.68;;;;;;;1.61;100.00;99931.47;5092503;28;20026;-82
2022/12/05 08:02:20;;;;;;;108.40;75.32;;;;;;;1.59;100.00;99928.91;5092575;28;20081;-82
2022/12/05 08:04:46;;;;;;;80.18;51.85;;;;;;;1.50;100.00;99909.25;5074374;28;20107;-82
2022/12/05 08:07:11;;;;;;;76.47;47.50;;;;;;;1.55;100.00;99927.22;5092809;28;20027;-82
2022/12/05 08:09:36;;;;;;;77.70;48.50;;;;;;;1.58;100.00;99926.34;5092651;28;20012;-82
2022/12/05 08:12:02;;;;;;;69.07;41.70;;;;;;;1.58;100.00;99929.75;5074163;28;20027;-82
2022/12/05 08:14:27;;;;;;;72.45;42.03;;;;;;;1.50;100.00;99921.25;5074395;28;20122;-82
2022/12/05 08:16:52;;;;;;;77.78;46.35;;;;;;;1.54;100.00;99928.06;5092128;28;20051;-82
2022/12/05 08:19:18;;;;;;;63.75;37.90;;;;;;;1.60;100.00;99940.91;5092605;28;20055;-82
2022/12/05 08:21:43;;;;;;;73.80;44.50;;;;;;;1.64;100.00;99939.97;5074178;28;20035;-82
2022/12/05 08:24:09;;;;;;;69.35;42.28;;;;;;;1.65;100.00;99946.84;5092446;28;20371;-82
2022/12/05 08:26:35;;;;;;;68.45;40.60;;;;;;;1.62;100.00;99936.59;5092366;28;20043;-82
2022/12/05 08:29:01;;;;;;;75.28;44.47;;;;;;;1.66;100.00;99950.25;5092075;28;20024;-82
2022/12/05 08:31:28;;;;;;;70.68;41.33;;;;;;;1.62;100.00;99940.88;5092116;28;20456;-82
2022/12/05 08:33:56;;;;;;;66.53;39.40;;;;;;;1.63;100.00;99940.00;5073710;28;20064;-82
2022/12/05 08:36:21;;;;;;;66.38;39.25;;;;;;;1.65;100.00;99936.56;5092021;28;20024;-82
2022/12/05 08:38:46;;;;;;;67.85;42.00;;;;;;;1.64;100.00;99934.84;5092003;28;20012;-82
2022/12/05 08:41:14;;;;;;;66.55;39.03;;;;;;;1.59;100.00;99928.91;5092454;28;20036;-82
2022/12/05 08:43:41;;;;;;;67.55;40.88;;;;;;;1.66;100.00;99947.69;5092278;28;20024;-82
2022/12/05 08:46:07;;;;;;;78.97;40.15;;;;;;;1.71;100.00;99943.38;5092403;28;20147;-82
2022/12/05 08:48:33;;;;;;;67.50;38.95;;;;;;;1.70;100.00;99947.66;5074211;28;20060;-82
2022/12/05 08:51:04;;;;;;;64.75;40.05;;;;;;;1.71;100.00;99948.53;5091846;28;20110;-82
2022/12/05 08:53:30;;;;;;;66.80;42.60;;;;;;;1.72;100.00;99956.19;5092329;28;20363;-82
2022/12/05 08:55:59;;;;;;;66.40;39.15;;;;;;;1.61;100.00;99937.47;5093500;28;20026;-82
2022/12/05 08:58:24;;;;;;;71.20;41.30;;;;;;;1.72;100.00;99947.66;5098557;28;20074;-82
2022/12/05 09:00:50;;;;;;;62.25;39.65;;;;;;;1.69;100.00;99947.69;5080270;28;20032;-82
2022/12/05 09:03:15;;;;;;;73.18;43.38;;;;;;;1.75;100.00;99958.75;5080762;28;20355;-82
2022/12/05 09:05:40;;;;;;;65.35;39.35;;;;;;;1.73;100.00;99942.53;5098699;28;20054;-82
2022/12/05 09:08:06;;;;;;;69.13;42.05;;;;;;;1.73;100.00;99939.97;5098667;28;20016;-82
2022/12/05 09:10:31;;;;;;;76.72;46.53;;;;;;;1.79;100.00;99948.47;5080160;28;20031;-82
2022/12/05 09:12:57;;;;;;;76.15;45.65;;;;;;;1.82;100.00;99938.19;5079959;28;20031;-82
2022/12/05 09:15:22;;;;;;;81.55;50.13;;;;;;;1.77;100.00;99919.38;5098775;28;20435;-82
2022/12/05 09:17:47;;;;;;;63.17;39.30;;;;;;;1.82;100.00;99927.91;5098425;28;20406;-82
2022/12/05 09:20:13;;;;;;;72.20;44.65;;;;;;;1.74;100.00;99905.72;5098584;28;20055;-82
2022/12/05 09:22:40;;;;;;;75.63;46.08;;;;;;;1.85;100.00;99915.88;5098556;28;20020;-82
2022/12/05 09:25:06;;;;;;;80.72;46.90;;;;;;;1.87;100.00;99914.19;5098195;28;20031;-82
2022/12/05 09:27:31;;;;;;;72.78;42.78;;;;;;;1.87;100.00;99916.75;5080081;28;20019;-82
2022/12/05 09:29:56;;;;;;;71.38;42.55;;;;;;;1.94;100.00;99912.44;5097976;28;20367;-82
2022/12/05 09:32:22;;;;;;;66.65;38.85;;;;;;;1.86;100.00;99891.09;5098499;28;20065;-82
2022/12/05 09:34:47;;;;;;;70.72;44.85;;;;;;;1.99;100.00;99915.81;5098357;28;20024;-82
2022/12/05 09:37:12;;;;;;;66.15;40.45;;;;;;;2.07;100.00;99915.75;5098583;28;20020;-82
2022/12/05 09:39:38;;;;;;;74.80;44.33;;;;;;;2.04;100.00;99906.34;5098394;28;20031;-82
2022/12/05 09:42:17;;;;;;;69.50;42.95;;;;;;;2.15;100.00;99919.97;5075143;28;20090;-82
2022/12/05 09:44:57;;;;;;;67.80;41.75;;;;;;;2.16;100.00;99918.25;5075697;28;20033;-82
2022/12/05 09:48:13;;;;;;;67.63;40.83;;;;;;;2.14;100.00;99910.53;5075617;28;20151;-82
2022/12/05 09:50:56;;;;;;;79.70;48.25;;;;;;;2.11;100.00;99913.16;5015637;28;20469;-82
2022/12/05 09:53:37;;;;;;;75.28;45.00;;;;;;;2.08;100.00;99914.88;5015650;28;20028;-82
2022/12/05 09:56:08;;;;;;;;;;;;;;;2.08;100.00;99907.19;5015810;28;20034;-82
2022/12/05 09:58:42;;;;;;;;;;;;;;;2.07;100.00;99903.75;5016142;28;19906;-82
2022/12/05 10:01:40;;;;;;;71.25;42.97;;;;;;;2.05;100.00;99890.06;5015070;28;19917;-82
2022/12/05 10:04:30;;;;;;;69.72;39.97;;;;;;;2.13;100.00;99900.28;5015441;28;20034;-82
2022/12/05 10:07:32;;;;;;;69.10;41.40;;;;;;;2.19;100.00;99905.34;5014750;28;20045;-82
2022/12/05 10:10:13;;;;;;;76.60;44.92;;;;;;;2.14;100.00;99892.53;5012171;28;20676;-82
2022/12/05 10:12:47;;;;;;;62.80;39.22;;;;;;;2.28;100.00;99912.16;5012722;28;20100;-82
2022/12/05 10:15:41;;;;;;;72.45;43.15;;;;;;;2.27;100.00;99907.84;4996117;28;20033;-82
2022/12/05 10:18:39;;;;;;;69.07;40.00;;;;;;;2.30;100.00;99895.84;4994356;28;20041;-82
2022/12/05 10:21:12;;;;;;;73.15;44.88;;;;;;;2.37;100.00;99899.22;5030520;28;20063;-82
2022/12/05 10:23:40;;;;;;;68.95;40.33;;;;;;;2.43;100.00;99894.84;5094515;28;20023;-82
2022/12/05 10:26:10;;;;;;;69.88;43.05;;;;;;;2.38;100.00;99878.63;5076116;28;20181;-82
2022/12/05 10:28:40;;;;;;;68.22;41.83;;;;;;;2.40;100.00;99881.16;5094515;28;20027;-82
2022/12/05 10:31:11;;;;;;;66.07;38.78;;;;;;;2.40;100.00;99870.88;5094317;28;20554;-82
2022/12/05 10:33:40;;;;;;;76.60;46.53;;;;;;;2.39;100.00;99874.34;5094524;28;20020;-82
2022/12/05 10:36:14;;;;;;;71.78;44.85;;;;;;;2.42;100.00;99885.44;5076229;28;20023;-82
2022/12/05 10:38:42;;;;;;;74.18;45.75;;;;;;;2.38;100.00;99881.19;5076099;28;20020;-82
2022/12/05 10:41:11;;;;;;;67.40;41.72;;;;;;;2.40;100.00;99883.75;5094289;28;20055;-82
2022/12/05 10:43:39;;;;;;;74.00;44.25;;;;;;;2.37;100.00;99884.66;5076188;28;20018;-82
2022/12/05 10:46:05;;;;;;;72.55;45.10;;;;;;;2.39;100.00;99890.59;5075886;28;20024;-82
2022/12/05 10:48:35;;;;;;;73.13;45.10;;;;;;;2.39;100.00;99895.75;5094124;28;20031;-82
2022/12/05 10:51:00;;;;;;;63.75;39.35;;;;;;;2.42;100.00;99893.16;5075692;28;20119;-82
2022/12/05 10:53:30;;;;;;;69.50;40.53;;;;;;;2.45;100.00;99893.13;5094285;28;20095;-82
2022/12/05 10:55:55;;;;;;;65.47;40.10;;;;;;;2.47;100.00;99893.09;5093919;28;20069;-82
2022/12/05 10:58:25;;;;;;;66.13;39.10;;;;;;;2.49;100.00;99897.38;5075848;28;20024;-82
2022/12/05 11:00:54;;;;;;;71.17;45.37;;;;;;;2.55;100.00;99898.19;5075605;28;20024;-82
2022/12/05 11:03:26;;;;;;;72.25;44.90;;;;;;;2.54;100.00;99914.47;5093953;28;20024;-82
2022/12/05 11:05:55;;;;;;;76.15;45.65;;;;;;;2.56;100.00;99892.16;5075535;28;20468;-82
2022/12/05 11:08:23;;;;;;;67.13;43.63;;;;;;;2.46;100.00;99884.53;5093913;28;20024;-82
2022/12/05 11:10:48;;;;;;;65.03;41.00;;;;;;;2.47;100.00;99880.25;5093821;28;20020;-82
2022/12/05 11:13:22;;;;;;;72.80;41.83;;;;;;;2.55;100.00;99891.31;5093476;28;20337;-82
2022/12/05 11:15:47;;;;;;;66.95;40.42;;;;;;;2.50;100.00;99886.22;5093656;28;20023;-82
2022/12/05 11:18:28;;;;;;;64.32;41.10;;;;;;;2.57;100.00;99896.44;5093338;28;20107;-82
2022/12/05 11:20:54;;;;;;;;;;;;;;;2.58;100.00;99893.88;5093950;28;20032;-82
2022/12/05 11:23:28;;;;;;;67.25;39.80;;;;;;;2.54;100.00;99888.78;5093627;28;19926;-82
2022/12/05 11:25:55;;;;;;;88.88;51.53;;;;;;;2.52;100.00;99875.91;5075030;28;20027;-82
2022/12/05 11:28:20;;;;;;;72.93;45.78;;;;;;;2.62;100.00;99885.25;5093383;28;20022;-82
2022/12/05 11:30:58;;;;;;;69.20;46.22;;;;;;;2.63;100.00;99892.09;5075342;28;20114;-82
2022/12/05 11:33:26;;;;;;;72.38;44.92;;;;;;;2.51;100.00;99861.38;5093382;28;20363;-82